Decoded Metar for KARR (CHICAGO/AURORA in IL, USA) (IATA:ARR) | Meteo·Mobile Aviation Weather
aviador You're here:

KARR Decoded Metar

CHICAGO/AURORA in IL, USA
Report Time2018-10-18 08:52:00
UTC Time2018-10-18 09:09:42
Flight Rules vfr VFR
Wind280° at 04 kt
W.Decomp.*RWY 27: 3.9 kt HW 0.8 kt RCW
RWY 33: 2.6 kt HW 3 kt LCW
RWY 36: 0.8 kt HW 3.9 kt LCW
W.Rank280° ranks 5
Current wind is below 280° avg. (9.5)
Visibility9999 m
Phenomena:N/A
Clouds:N/A
Expected CloudBase > 400 ft AGL from Temp-Dew spread
CeilingNone
Temp-3°C (ISA -17)
Dew Point-4°C (93% RH)
AAT-6.9°C
QNH1033 hPa
Density Alt-1,949 ft
Elevation705 ft
Report Wrong Elevation
Raw Report
KARR 180852Z AUTO 28004KT 10SM CLR M03/M04 A3049 RMK AO2 SLP331
T10281039 53004=

Extra information for KARR:More info

Metar Taf Metar & Taf Last 4 Metars F.Rules Stats Wind Profile Meteogram Temp Stats Airport Information Weather charts Add Link Nearby VenuesMetar ALERT Operation Metar Decoded Social comments

AIRNAV info for KARR